バンギ の空港の天気 - METARとTAF

バンギ・ムポコ国際空港 ( FEFF / BGF ) - 中央アフリカ バンギ
飛行場実況気象(Metar)
観測時間11/14 18:00 WAT (11/14 17:00 UTC)
風向・風速不定 1m/s
視程6000m
天気現象
なし
気温29℃
湿度84%
気圧1006hPa
METARFEFF 141700Z VRB02KT 6000 NSC 29/26 Q1006 TEMPO 4000 FU
過去の天気等 Google飛行場航空写真 Wunderground天気予報

過去48時間のMETAR

飛行場予報(TAF)
発表時間: 11/14 12:00 WAT (11/14 11:00 UTC)
予報対象時間: 14日13時 WAT ~ 15日19時 WAT
視程10km以上
少しの雲 雲底高度 610m
少しの積乱雲 雲底高度 1220m
14日16時 WAT ~ 14日20時 WAT に 確率 30% で一時的に
天気現象
14日21時 WAT ~ 14日23時 WAT に徐々に
視程4000m
天気現象もや
15日4時 WAT ~ 15日7時 WAT に一時的に
視程800m
天気現象
TAF COR FEFF 141100Z 1412/1518 2805KT 9999 FEW020 FEW040CB
PROB30 TEMPO 1415/1419 TS
BECMG 1420/1422 4000 BR
TEMPO 1503/1506 0800 FG